Airfield :







YOU CAN JOIN US ON...

 
LOGIN :

Register | Disclaimer

   EN    FR    IT 

 









Legend :    VFR   Marginal VFR   IFR   Intensive IFR   Very Intensive IFR
Visi :
Ceiling :
>= 8 km
>= 3000ft
5 to 8 km
1000 to 3000 ft
1500m to 5 km
500 to 1000 ft
800 to 1500m
200 to 500 ft
< 800m
< 200 ft
Symbols :   Thunderstorms  Fog  Heavy snow  Heavy precipitations  Wind > 20 kt






- Airport Elevation : 166 ft
- IATA code : YCX


CYCX - Gagetown Heliport

CURRENT METAR :
  • 180100Z 23004KT 15SM BKN070 16/09 A2987 RMK AC5 DA549FT SLP115

EXPIRED METARs :
  • 180000Z 25004KT 15SM BKN072 18/08 A2984 RMK AC6 DA840FT SLP106
  • 172300Z 25005KT 15SM FEW060 BKN091 19/08 A2982 RMK SC1AC6 DA942FT SLP099

TAF TAF CYCX
Valid from the 17 at 21:00 until the 18 at 09:00 UTC


172030Z 1721/1809 25012G22KT P6SM BKN070
TEMPO 1721/1722 P6SM -SHRA
BECMG 1722/1724 25008KT
FM180500 22005KT P6SM FEW070 RMK NXT FCST BY 180300Z
CZQM FIR / North America



MET'MAP, your aeronautical weather chart ! - Copyright ORBIFLY December 2007 - Disclaimer

ORBIFLY MET'MAP TEAM :

Programming & Development : Alexandra Zaïnal
Concept & original design : Baudouin d'Aumeries
Assistance for programming : Marc-Olivier Méhu
Technical & hardware support : Manuel Goepfert

Contact : metmap@orbifly.com




SOURCES & CREDITS :

   NOAA